createdAt,value
2022-08-20T00:01:16.122Z,4.22
2022-08-20T00:03:44.680Z,4.25
2022-08-20T00:06:21.285Z,3.72
2022-08-20T00:08:48.903Z,5.03
2022-08-20T00:11:24.014Z,5.65
2022-08-20T00:13:54.924Z,5.15
2022-08-20T00:16:25.215Z,5.93
2022-08-20T00:18:52.228Z,6.10
2022-08-20T00:21:21.441Z,6.70
2022-08-20T00:23:51.849Z,6.05
2022-08-20T00:26:19.813Z,6.03
2022-08-20T00:28:47.045Z,7.00
2022-08-20T00:33:45.649Z,6.57
2022-08-20T00:36:12.833Z,6.03
2022-08-20T00:38:42.491Z,6.15
2022-08-20T00:41:14.123Z,6.50
2022-08-20T00:43:44.391Z,4.93
2022-08-20T00:46:31.140Z,5.18
2022-08-20T00:48:59.169Z,4.80
2022-08-20T00:51:34.739Z,3.60
2022-08-20T00:54:07.040Z,3.53
2022-08-20T00:56:34.997Z,2.40
2022-08-20T00:59:04.803Z,1.92
2022-08-20T01:01:34.570Z,1.25
2022-08-20T01:04:21.530Z,1.60
2022-08-20T01:06:48.541Z,0.65
2022-08-20T01:09:15.566Z,0.52
2022-08-20T01:14:18.877Z,0.50
2022-08-20T01:16:49.197Z,0.80
2022-08-20T01:19:29.560Z,1.25
2022-08-20T01:21:59.373Z,0.80
2022-08-20T01:24:36.697Z,0.90
2022-08-20T01:27:05.663Z,1.00
2022-08-20T01:29:39.271Z,1.05
2022-08-20T01:32:07.109Z,1.35
2022-08-20T01:34:34.156Z,1.10
2022-08-20T01:37:01.143Z,1.08
2022-08-20T01:39:32.084Z,1.00
2022-08-20T01:42:32.458Z,1.30
2022-08-20T01:44:59.464Z,0.90
2022-08-20T01:47:35.373Z,1.40
2022-08-20T01:52:57.481Z,1.48
2022-08-20T01:55:24.542Z,1.98
2022-08-20T01:57:51.599Z,2.42
2022-08-20T02:00:22.097Z,2.13
2022-08-20T02:02:49.949Z,2.78
2022-08-20T02:05:18.045Z,2.75
2022-08-20T02:07:45.076Z,2.90
2022-08-20T02:10:14.466Z,2.75
2022-08-20T02:12:41.684Z,3.17
2022-08-20T02:17:39.249Z,3.22
2022-08-20T02:20:11.525Z,3.95
2022-08-20T02:22:55.369Z,3.42
2022-08-20T02:25:26.411Z,3.90
2022-08-20T02:27:56.091Z,4.50
2022-08-20T02:30:35.678Z,3.72
2022-08-20T02:33:07.031Z,4.97
2022-08-20T02:35:34.368Z,4.32
2022-08-20T02:40:30.743Z,5.10
2022-08-20T02:43:02.661Z,5.63
2022-08-20T02:45:37.286Z,6.45
2022-08-20T02:48:05.449Z,5.32
2022-08-20T02:50:32.618Z,6.57
2022-08-20T02:58:00.480Z,6.78
2022-08-20T03:00:32.202Z,6.60
2022-08-20T03:03:08.428Z,7.80
2022-08-20T03:05:36.695Z,7.53
2022-08-20T03:08:09.050Z,6.85
2022-08-20T03:10:38.760Z,8.10
2022-08-20T03:13:11.200Z,7.40
2022-08-20T03:15:47.707Z,8.43
2022-08-20T03:18:16.077Z,8.63
2022-08-20T03:20:46.027Z,8.50
2022-08-20T03:23:14.093Z,9.38
2022-08-20T03:25:42.125Z,8.73
2022-08-20T03:28:09.372Z,9.93
2022-08-20T03:33:03.506Z,8.90
2022-08-20T03:35:33.941Z,9.13
2022-08-20T03:38:01.141Z,9.40
2022-08-20T03:42:58.450Z,8.35
2022-08-20T03:45:26.644Z,8.85
2022-08-20T03:47:55.216Z,9.88
2022-08-20T03:50:26.123Z,8.85
2022-08-20T03:52:53.716Z,9.38
2022-08-20T03:55:22.063Z,8.32
2022-08-20T03:57:52.940Z,9.57
2022-08-20T04:00:26.925Z,8.18
2022-08-20T04:02:57.306Z,9.02
2022-08-20T04:05:30.240Z,7.55
2022-08-20T04:08:02.772Z,8.20
2022-08-20T04:10:31.361Z,9.32
2022-08-20T04:12:58.341Z,10.07
2022-08-20T04:15:26.862Z,7.70
2022-08-20T04:17:54.197Z,8.30
2022-08-20T04:20:23.970Z,9.02
2022-08-20T04:22:58.622Z,8.30
2022-08-20T04:25:29.533Z,7.60
2022-08-20T04:27:58.584Z,9.15
2022-08-20T04:30:26.419Z,7.70
2022-08-20T04:32:54.350Z,7.97
2022-08-20T04:35:24.652Z,7.78
2022-08-20T04:38:03.180Z,9.10
2022-08-20T04:40:48.952Z,7.93
2022-08-20T04:43:16.257Z,8.18
2022-08-20T04:45:43.331Z,8.25
2022-08-20T04:48:14.745Z,9.32
2022-08-20T04:50:44.763Z,9.27
2022-08-20T04:53:14.159Z,10.55
2022-08-20T04:55:42.895Z,8.73
2022-08-20T04:58:21.773Z,9.77
2022-08-20T05:00:51.819Z,9.55
2022-08-20T05:03:19.618Z,9.32
2022-08-20T05:05:47.405Z,10.23
2022-08-20T05:08:20.058Z,9.20
2022-08-20T05:10:47.803Z,8.90
2022-08-20T05:13:15.590Z,9.00
2022-08-20T05:15:45.530Z,10.07
2022-08-20T05:18:13.217Z,10.25
2022-08-20T05:20:42.683Z,9.57
2022-08-20T05:23:11.729Z,10.43
2022-08-20T05:25:40.304Z,10.10
2022-08-20T05:28:13.550Z,10.60
2022-08-20T05:30:42.955Z,11.45
2022-08-20T05:33:10.577Z,10.15
2022-08-20T05:35:39.216Z,10.05
2022-08-20T05:38:07.771Z,10.32
2022-08-20T05:40:34.969Z,11.15
2022-08-20T05:45:33.072Z,10.75
2022-08-20T05:48:05.379Z,9.80
2022-08-20T05:50:33.190Z,10.85
2022-08-20T05:53:01.451Z,9.27
2022-08-20T05:55:29.310Z,10.43
2022-08-20T05:58:01.791Z,9.35
2022-08-20T06:00:30.553Z,9.50
2022-08-20T06:03:16.249Z,9.85
2022-08-20T06:05:43.279Z,8.77
2022-08-20T06:08:11.625Z,8.93
2022-08-20T06:10:40.681Z,8.30
2022-08-20T06:13:14.035Z,9.07
2022-08-20T06:15:41.504Z,8.35
2022-08-20T06:20:56.353Z,8.30
2022-08-20T06:23:25.215Z,10.15
2022-08-20T06:25:52.619Z,9.63
2022-08-20T06:28:19.654Z,9.07
2022-08-20T06:30:47.100Z,9.40
2022-08-20T06:33:14.360Z,9.93
2022-08-20T06:38:11.225Z,9.40
2022-08-20T06:40:39.189Z,9.65
2022-08-20T06:43:08.989Z,9.07
2022-08-20T06:45:38.799Z,8.43
2022-08-20T06:48:11.119Z,8.75
2022-08-20T06:50:47.713Z,8.95
2022-08-20T06:53:18.188Z,8.55
2022-08-20T06:55:56.880Z,8.07
2022-08-20T06:58:37.342Z,8.70
2022-08-20T07:01:09.980Z,7.43
2022-08-20T07:03:42.291Z,8.23
2022-08-20T07:06:22.247Z,6.82
2022-08-20T07:08:49.982Z,7.57
2022-08-20T07:11:26.596Z,7.30
2022-08-20T07:16:21.276Z,7.30
2022-08-20T07:18:48.464Z,6.07
2022-08-20T07:23:48.993Z,5.90
2022-08-20T07:26:16.771Z,6.28
2022-08-20T07:28:43.823Z,4.35
2022-08-20T07:31:31.280Z,4.50
2022-08-20T07:33:58.948Z,4.38
2022-08-20T07:36:27.154Z,4.78
2022-08-20T07:38:54.730Z,5.40
2022-08-20T07:41:24.376Z,5.65
2022-08-20T07:43:51.500Z,4.68
2022-08-20T07:46:21.436Z,4.82
2022-08-20T07:48:50.214Z,5.40
2022-08-20T07:51:19.882Z,5.40
2022-08-20T07:53:48.145Z,5.63
2022-08-20T07:56:22.483Z,7.07
2022-08-20T07:58:55.196Z,7.05
2022-08-20T08:01:28.463Z,7.30
2022-08-20T08:03:56.918Z,7.28
2022-08-20T08:06:29.569Z,7.18
2022-08-20T08:09:07.056Z,7.45
2022-08-20T08:11:38.242Z,7.17
2022-08-20T08:14:08.138Z,6.53
2022-08-20T08:16:36.430Z,6.63
2022-08-20T08:19:07.481Z,6.28
2022-08-20T08:21:35.614Z,7.03
2022-08-20T08:24:03.131Z,7.50
2022-08-20T08:26:30.291Z,6.43
2022-08-20T08:31:26.172Z,5.90
2022-08-20T08:33:53.447Z,6.43
2022-08-20T08:36:20.492Z,6.03
2022-08-20T08:38:47.685Z,5.90
2022-08-20T08:43:46.814Z,5.72
2022-08-20T08:46:18.826Z,6.65
2022-08-20T08:48:48.530Z,5.40
2022-08-20T08:51:20.323Z,5.70
2022-08-20T08:53:53.431Z,6.80
2022-08-20T08:56:25.410Z,5.60
2022-08-20T08:58:55.530Z,6.13
2022-08-20T09:01:55.653Z,7.97
2022-08-20T09:04:16.288Z,6.28
2022-08-20T09:06:55.872Z,6.68
2022-08-20T09:09:32.707Z,5.28
2022-08-20T09:12:07.315Z,5.50
2022-08-20T09:14:34.546Z,4.57
2022-08-20T09:21:55.461Z,5.63
2022-08-20T09:24:22.482Z,4.85
2022-08-20T09:26:52.465Z,5.93
2022-08-20T09:29:19.436Z,6.22
2022-08-20T09:31:49.644Z,6.10
2022-08-20T09:34:17.505Z,5.95
2022-08-20T09:41:39.699Z,5.47
2022-08-20T09:44:06.707Z,4.82
2022-08-20T09:46:33.781Z,5.03
2022-08-20T09:51:31.241Z,4.88
2022-08-20T09:53:58.289Z,4.55
2022-08-20T09:56:25.921Z,3.67
2022-08-20T09:58:56.529Z,4.55
2022-08-20T10:01:26.052Z,4.32
2022-08-20T10:03:53.203Z,4.00
2022-08-20T10:08:49.676Z,3.85
2022-08-20T10:11:18.037Z,4.07
2022-08-20T10:13:45.630Z,4.65
2022-08-20T10:16:12.842Z,6.30
2022-08-20T10:18:39.930Z,6.35
2022-08-20T10:23:37.355Z,7.80
2022-08-20T10:28:31.612Z,10.88
2022-08-20T10:30:58.562Z,11.68
2022-08-20T10:33:25.616Z,12.18
2022-08-20T10:38:26.941Z,11.82
2022-08-20T10:40:53.881Z,11.23
2022-08-20T10:43:20.838Z,11.13
2022-08-20T10:45:47.853Z,12.93
2022-08-20T10:50:49.032Z,14.10
2022-08-20T10:53:16.305Z,12.98
2022-08-20T10:55:44.275Z,12.93
2022-08-20T10:58:13.091Z,12.65
2022-08-20T11:00:41.426Z,11.32
2022-08-20T11:03:08.781Z,10.43
2022-08-20T11:05:35.785Z,11.10
2022-08-20T11:10:36.116Z,12.18
2022-08-20T11:13:05.333Z,11.70
2022-08-20T11:15:37.094Z,11.65
2022-08-20T11:18:04.787Z,11.63
2022-08-20T11:20:32.858Z,11.60
2022-08-20T11:23:00.363Z,11.45
2022-08-20T11:25:29.206Z,11.95
2022-08-20T11:27:57.702Z,10.77
2022-08-20T11:30:29.294Z,10.25
2022-08-20T11:32:57.964Z,10.38
2022-08-20T11:35:48.236Z,10.57
2022-08-20T11:38:15.403Z,9.98
2022-08-20T11:40:42.541Z,9.32
2022-08-20T11:43:18.017Z,9.35
2022-08-20T11:45:49.758Z,8.68
2022-08-20T11:48:20.923Z,8.18
2022-08-20T11:50:48.759Z,7.63
2022-08-20T11:53:16.385Z,7.85
2022-08-20T11:55:44.144Z,7.78
2022-08-20T11:58:11.317Z,6.25
2022-08-20T12:00:38.422Z,7.68
2022-08-20T12:03:10.358Z,6.40
2022-08-20T12:05:41.573Z,6.65
2022-08-20T12:08:09.141Z,6.35
2022-08-20T12:10:40.073Z,6.68
2022-08-20T12:13:07.813Z,6.55
2022-08-20T12:15:36.763Z,5.47
2022-08-20T12:18:10.831Z,4.85
2022-08-20T12:20:38.749Z,4.90
2022-08-20T12:23:05.832Z,5.00
2022-08-20T12:27:59.943Z,5.03
2022-08-20T12:30:29.401Z,4.95
2022-08-20T12:32:56.593Z,4.65
2022-08-20T12:35:23.963Z,4.50
2022-08-20T12:37:51.204Z,4.80
2022-08-20T12:40:30.642Z,4.50
2022-08-20T12:43:01.209Z,3.92
2022-08-20T12:45:28.729Z,3.85
2022-08-20T12:48:02.646Z,4.22
2022-08-20T12:50:31.777Z,3.85
2022-08-20T12:52:59.599Z,4.15
2022-08-20T12:55:26.775Z,4.15
2022-08-20T12:57:59.180Z,4.47
2022-08-20T13:00:32.402Z,4.13
2022-08-20T13:03:05.044Z,3.72
2022-08-20T13:05:35.978Z,3.53
2022-08-20T13:08:07.929Z,4.32
2022-08-20T13:10:45.390Z,3.42
2022-08-20T13:13:17.663Z,3.75
2022-08-20T13:15:48.608Z,3.20
2022-08-20T13:18:15.733Z,3.28
2022-08-20T13:20:43.420Z,4.03
2022-08-20T13:23:12.310Z,2.67
2022-08-20T13:25:41.202Z,2.45
2022-08-20T13:28:34.173Z,3.53
2022-08-20T13:31:05.816Z,3.22
2022-08-20T13:33:34.821Z,2.97
2022-08-20T13:36:02.622Z,3.03
2022-08-20T13:38:31.288Z,3.15
2022-08-20T13:40:58.268Z,3.22
2022-08-20T13:43:25.211Z,2.83
2022-08-20T13:45:54.411Z,2.45
2022-08-20T13:48:21.411Z,2.90
2022-08-20T13:50:49.835Z,2.72
2022-08-20T13:53:17.234Z,3.00
2022-08-20T13:55:45.539Z,2.97
2022-08-20T13:58:13.338Z,2.47
2022-08-20T14:00:40.583Z,2.58
2022-08-20T14:03:07.764Z,2.20
2022-08-20T14:05:35.042Z,2.25
2022-08-20T14:08:10.055Z,2.58
2022-08-20T14:10:37.793Z,2.65
2022-08-20T14:13:06.998Z,2.20
2022-08-20T14:15:37.562Z,2.55
2022-08-20T14:18:05.196Z,3.15
2022-08-20T14:20:34.108Z,2.58
2022-08-20T14:23:02.028Z,2.88
2022-08-20T14:25:31.504Z,2.63
2022-08-20T14:28:02.053Z,2.95
2022-08-20T14:30:30.296Z,2.83
2022-08-20T14:32:57.587Z,2.75
2022-08-20T14:35:24.777Z,3.13
2022-08-20T14:37:55.378Z,2.90
2022-08-20T14:40:24.874Z,3.33
2022-08-20T14:42:52.508Z,2.90
2022-08-20T14:45:20.361Z,2.95
2022-08-20T14:47:53.590Z,2.88
2022-08-20T14:50:35.469Z,3.15
2022-08-20T14:53:03.220Z,3.33
2022-08-20T14:55:33.681Z,3.08
2022-08-20T14:58:00.726Z,3.30
2022-08-20T15:00:31.045Z,3.13
2022-08-20T15:02:58.272Z,2.95
2022-08-20T15:05:25.918Z,3.10
2022-08-20T15:07:54.412Z,2.60
2022-08-20T15:10:25.340Z,2.78
2022-08-20T15:12:52.460Z,2.83
2022-08-20T15:15:20.132Z,2.75
2022-08-20T15:17:53.386Z,3.10
2022-08-20T15:20:23.016Z,2.42
2022-08-20T15:22:51.080Z,2.25
2022-08-20T15:25:21.768Z,2.35
2022-08-20T15:27:49.573Z,2.45
2022-08-20T15:30:21.591Z,2.13
2022-08-20T15:32:54.098Z,1.98
2022-08-20T15:35:24.425Z,1.90
2022-08-20T15:37:51.645Z,1.88
2022-08-20T15:40:27.252Z,1.70
2022-08-20T15:42:59.857Z,2.20
2022-08-20T15:45:27.608Z,1.73
2022-08-20T15:48:13.166Z,1.80
2022-08-20T15:51:01.663Z,1.55
2022-08-20T15:54:05.945Z,2.00
2022-08-20T15:56:38.381Z,1.88
2022-08-20T15:59:24.155Z,1.80
2022-08-20T16:02:03.819Z,2.10
2022-08-20T16:05:01.990Z,2.42
2022-08-20T16:07:34.800Z,1.83
2022-08-20T16:10:06.421Z,1.63
2022-08-20T16:12:40.717Z,2.05
2022-08-20T16:15:24.241Z,3.95
2022-08-20T16:18:13.365Z,8.90
2022-08-20T16:20:52.456Z,5.13
2022-08-20T16:23:31.643Z,5.63
2022-08-20T16:26:10.737Z,1.88
2022-08-20T16:28:46.423Z,7.95
2022-08-20T16:31:22.473Z,1.63
2022-08-20T16:34:33.099Z,1.67
2022-08-20T16:37:39.289Z,2.30
2022-08-20T16:40:30.682Z,1.20
2022-08-20T16:43:02.840Z,2.75
2022-08-20T16:45:31.601Z,1.63
2022-08-20T16:48:02.383Z,1.27
2022-08-20T16:50:34.770Z,1.80
2022-08-20T16:53:02.046Z,1.98
2022-08-20T16:55:29.214Z,1.48
2022-08-20T16:57:56.656Z,11.70
2022-08-20T17:00:34.916Z,2.95
2022-08-20T17:03:03.688Z,1.48
2022-08-20T17:05:49.691Z,1.90
2022-08-20T17:08:23.159Z,1.00
2022-08-20T17:11:11.137Z,1.50
2022-08-20T17:13:44.705Z,1.25
2022-08-20T17:16:14.663Z,2.28
2022-08-20T17:18:44.850Z,1.58
2022-08-20T17:21:13.816Z,1.70
2022-08-20T17:23:55.991Z,1.50
2022-08-20T17:26:35.246Z,1.52
2022-08-20T17:29:21.358Z,1.50
2022-08-20T17:31:57.618Z,1.65
2022-08-20T17:34:28.238Z,1.90
2022-08-20T17:36:59.667Z,2.53
2022-08-20T17:39:29.012Z,1.77
2022-08-20T17:42:25.887Z,1.70
2022-08-20T17:44:57.105Z,1.75
2022-08-20T17:47:31.839Z,1.60
2022-08-20T17:50:12.373Z,1.85
2022-08-20T17:52:55.264Z,1.85
2022-08-20T17:55:22.380Z,1.90
2022-08-20T18:00:25.573Z,1.70
2022-08-20T18:03:01.021Z,1.92
2022-08-20T18:05:33.922Z,2.17
2022-08-20T18:08:14.839Z,2.50
2022-08-20T18:11:05.287Z,1.95
2022-08-20T18:13:52.661Z,2.40
2022-08-20T18:16:28.816Z,1.75
2022-08-20T18:18:57.757Z,1.77
2022-08-20T18:21:47.193Z,2.65
2022-08-20T18:24:57.859Z,1.70
2022-08-20T18:27:28.328Z,2.30
2022-08-20T18:30:00.597Z,2.15
2022-08-20T18:32:36.719Z,2.72
2022-08-20T18:35:17.289Z,2.95
2022-08-20T18:37:44.405Z,2.83
2022-08-20T18:42:58.721Z,2.55
2022-08-20T18:45:44.152Z,2.42
2022-08-20T18:48:24.392Z,2.65
2022-08-20T18:50:56.075Z,2.88
2022-08-20T18:53:34.429Z,2.80
2022-08-20T18:56:13.559Z,2.42
2022-08-20T18:59:01.968Z,2.75
2022-08-20T19:01:31.943Z,1.98
2022-08-20T19:03:59.004Z,1.85
2022-08-20T19:06:42.416Z,1.67
2022-08-20T19:09:30.401Z,2.40
2022-08-20T19:12:09.570Z,1.77
2022-08-20T19:15:00.208Z,2.33
2022-08-20T19:18:08.270Z,1.95
2022-08-20T19:20:40.921Z,2.75
2022-08-20T19:23:14.759Z,2.35
2022-08-20T19:25:59.357Z,2.55
2022-08-20T19:28:50.965Z,2.15
2022-08-20T19:31:28.364Z,2.47
2022-08-20T19:34:24.765Z,2.20
2022-08-20T19:37:35.229Z,2.13
2022-08-20T19:40:40.183Z,2.38
2022-08-20T19:43:16.682Z,2.13
2022-08-20T19:45:50.593Z,2.25
2022-08-20T19:48:29.485Z,2.28
2022-08-20T19:51:52.047Z,2.35
2022-08-20T19:54:24.433Z,2.45
2022-08-20T19:56:56.744Z,2.67
2022-08-20T19:59:24.061Z,2.03
2022-08-20T20:02:01.212Z,1.90
2022-08-20T20:04:36.264Z,2.28
2022-08-20T20:07:08.491Z,2.38
2022-08-20T20:09:40.164Z,2.67
2022-08-20T20:12:19.215Z,7.03
2022-08-20T20:14:52.890Z,10.48
2022-08-20T20:17:23.616Z,7.68
2022-08-20T20:19:59.010Z,3.53
2022-08-20T20:22:56.185Z,3.47
2022-08-20T20:25:39.584Z,2.88
2022-08-20T20:28:29.643Z,2.33
2022-08-20T20:31:11.591Z,2.55
2022-08-20T20:33:44.292Z,3.47
2022-08-20T20:36:32.931Z,6.15
2022-08-20T20:39:04.996Z,6.70
2022-08-20T20:41:33.026Z,3.90
2022-08-20T20:44:26.152Z,2.70
2022-08-20T20:46:59.398Z,2.88
2022-08-20T20:49:26.612Z,3.13
2022-08-20T20:52:01.236Z,2.85
2022-08-20T20:54:32.943Z,2.70
2022-08-20T20:57:06.129Z,2.63
2022-08-20T20:59:35.955Z,2.70
2022-08-20T21:02:04.221Z,2.83
2022-08-20T21:04:31.456Z,2.22
2022-08-20T21:07:04.866Z,2.58
2022-08-20T21:09:31.982Z,2.95
2022-08-20T21:11:58.949Z,2.40
2022-08-20T21:14:26.237Z,2.47
2022-08-20T21:19:21.019Z,2.33
2022-08-20T21:21:50.974Z,2.05
2022-08-20T21:24:18.316Z,1.75
2022-08-20T21:29:16.314Z,2.03
2022-08-20T21:31:45.469Z,2.10
2022-08-20T21:34:15.057Z,2.85
2022-08-20T21:36:46.582Z,1.85
2022-08-20T21:39:14.063Z,1.90
2022-08-20T21:41:42.816Z,1.95
2022-08-20T21:44:18.044Z,2.30
2022-08-20T21:46:50.113Z,2.03
2022-08-20T21:49:17.401Z,1.98
2022-08-20T21:59:08.603Z,1.85
2022-08-20T22:01:39.318Z,2.38
2022-08-20T22:04:06.664Z,2.13
2022-08-20T22:06:33.795Z,2.08
2022-08-20T22:09:00.816Z,2.00
2022-08-20T22:11:28.694Z,2.53
2022-08-20T22:13:56.065Z,2.80
2022-08-20T22:18:51.202Z,2.65
2022-08-20T22:21:22.036Z,2.83
2022-08-20T22:23:49.247Z,2.22
2022-08-20T22:26:17.062Z,1.85
2022-08-20T22:28:44.477Z,2.17
2022-08-20T22:31:22.212Z,2.55
2022-08-20T22:33:49.160Z,2.33
2022-08-20T22:36:16.254Z,1.70
2022-08-20T22:38:43.211Z,1.80
2022-08-20T22:41:13.365Z,1.48
2022-08-20T22:43:43.214Z,2.03
2022-08-20T22:46:26.742Z,2.45
2022-08-20T22:48:54.742Z,2.38
2022-08-20T22:51:26.794Z,2.17
2022-08-20T22:53:54.105Z,2.28
2022-08-20T22:58:50.427Z,1.83
2022-08-20T23:01:18.733Z,1.88
2022-08-20T23:03:46.363Z,1.80
2022-08-20T23:06:14.058Z,1.15
2022-08-20T23:08:42.050Z,2.38
2022-08-20T23:11:09.725Z,1.63
2022-08-20T23:13:37.660Z,1.75
2022-08-20T23:16:06.565Z,1.40
2022-08-20T23:18:33.814Z,1.95
2022-08-20T23:21:01.317Z,2.08
2022-08-20T23:23:28.425Z,1.63
2022-08-20T23:25:55.719Z,2.63
2022-08-20T23:30:51.388Z,1.63
2022-08-20T23:33:18.807Z,1.50
2022-08-20T23:38:13.619Z,1.77
2022-08-20T23:40:41.641Z,1.80
2022-08-20T23:43:09.695Z,1.75
2022-08-20T23:45:39.826Z,1.77
2022-08-20T23:48:08.896Z,1.50
2022-08-20T23:50:36.640Z,2.05
2022-08-20T23:53:04.705Z,2.33
2022-08-20T23:55:32.043Z,1.90
